Check out our new PWSWeather beta!
PWSweather.com
Personal Weather Stations
Station Observations
KMDSOLOM1
solomons, Solomons, MD 20688

solomonsSolomons, MD 20688

Lat: 38.32, Lon: -76.45

Elevation: 5

Station Type:

http://www.act-us.info/weather

High Low Average
Temperature 46.7°F8.2°C 38.9°F3.8°C 43.2°F6.2°C
Dew Point 40.9°F4.9°C 16.0°F-8.9°C 26.0°F-3.3°C
Winds 19.0 mph 30.6 kmh Calm Calm 8.0 mph W12.9 kmh W
Wind Gusts 28.0 mph45.1 kmh -- 14.0 mph22.5 kmh
Humidity 86% 29% 53%
Pressure 30.32 in1026.8 mb 29.99 in1015.6 mb -
Precipitation 0.00 in0.0 mm - -
Hour Temp Dew Point Humidity Winds Wind Gusts Pressure Precip Precip Rate Daily Precip Total
12:00 AM 45.4°F7.4°C 40.6°F4.8°C 83% 12.0 mph NW19.3 kmh NW 18.0 mph29.0 kmh 29.99 in1015.6 mb 0.00 in0.0 mm 0.00 in0.0 mm 0.00 in0.0 mm
12:05 AM 45.3°F7.4°C 40.5°F4.7°C 83% 9.0 mph WNW14.5 kmh WNW 18.0 mph29.0 kmh 29.99 in1015.6 mb 0.00 in0.0 mm 0.00 in0.0 mm 0.00 in0.0 mm
12:10 AM 45.3°F7.4°C 40.5°F4.7°C 83% 8.0 mph WSW12.9 kmh WSW 11.0 mph17.7 kmh 29.99 in1015.6 mb 0.00 in0.0 mm 0.00 in0.0 mm 0.00 in0.0 mm
12:15 AM 45.3°F7.4°C 40.5°F4.7°C 83% 10.0 mph WNW16.1 kmh WNW 16.0 mph25.7 kmh 29.99 in1015.6 mb 0.00 in0.0 mm 0.00 in0.0 mm 0.00 in0.0 mm
12:20 AM 45.3°F7.4°C 40.8°F4.9°C 84% 4.0 mph W6.4 kmh W 16.0 mph25.7 kmh 29.99 in1015.6 mb 0.00 in0.0 mm 0.00 in0.0 mm 0.00 in0.0 mm
12:25 AM 45.3°F7.4°C 40.8°F4.9°C 84% 12.0 mph WNW19.3 kmh WNW 16.0 mph25.7 kmh 29.99 in1015.6 mb 0.00 in0.0 mm 0.00 in0.0 mm 0.00 in0.0 mm
12:30 AM 45.2°F7.3°C 40.7°F4.8°C 84% 8.0 mph WNW12.9 kmh WNW 16.0 mph25.7 kmh 29.99 in1015.6 mb 0.00 in0.0 mm 0.00 in0.0 mm 0.00 in0.0 mm
12:35 AM 45.2°F7.3°C 40.7°F4.8°C 84% 8.0 mph W12.9 kmh W 19.0 mph30.6 kmh 29.99 in1015.6 mb 0.00 in0.0 mm 0.00 in0.0 mm 0.00 in0.0 mm
12:40 AM 45.2°F7.3°C 40.7°F4.8°C 84% 7.0 mph WNW11.3 kmh WNW 14.0 mph22.5 kmh 29.99 in1015.6 mb 0.00 in0.0 mm 0.00 in0.0 mm 0.00 in0.0 mm
12:45 AM 45.1°F7.3°C 40.6°F4.8°C 84% 8.0 mph W12.9 kmh W 17.0 mph27.4 kmh 29.99 in1015.6 mb 0.00 in0.0 mm 0.00 in0.0 mm 0.00 in0.0 mm
12:50 AM 45.1°F7.3°C 40.6°F4.8°C 84% 6.0 mph W9.7 kmh W 17.0 mph27.4 kmh 30.00 in1015.9 mb 0.00 in0.0 mm 0.00 in0.0 mm 0.00 in0.0 mm
12:55 AM 45.1°F7.3°C 40.6°F4.8°C 84% 8.0 mph NW12.9 kmh NW 12.0 mph19.3 kmh 30.00 in1015.9 mb 0.00 in0.0 mm 0.00 in0.0 mm 0.00 in0.0 mm
01:00 AM 45.1°F7.3°C 40.6°F4.8°C 84% 7.0 mph W11.3 kmh W 12.0 mph19.3 kmh 30.00 in1015.9 mb 0.00 in0.0 mm 0.00 in0.0 mm 0.00 in0.0 mm
01:05 AM 45.1°F7.3°C 40.9°F4.9°C 85% 3.0 mph WSW4.8 kmh WSW 15.0 mph24.1 kmh 30.00 in1015.9 mb 0.00 in0.0 mm 0.00 in0.0 mm 0.00 in0.0 mm
01:10 AM 45.1°F7.3°C 40.9°F4.9°C 85% 6.0 mph WSW9.7 kmh WSW 12.0 mph19.3 kmh 30.00 in1015.9 mb 0.00 in0.0 mm 0.00 in0.0 mm 0.00 in0.0 mm
01:15 AM 44.9°F7.2°C 40.7°F4.8°C 85% 6.0 mph WSW9.7 kmh WSW 14.0 mph22.5 kmh 30.00 in1015.9 mb 0.00 in0.0 mm 0.00 in0.0 mm 0.00 in0.0 mm
01:20 AM 44.7°F7.1°C 40.5°F4.7°C 85% 4.0 mph WSW6.4 kmh WSW 15.0 mph24.1 kmh 30.00 in1015.9 mb 0.00 in0.0 mm 0.00 in0.0 mm 0.00 in0.0 mm
01:25 AM 44.6°F7.0°C 40.7°F4.8°C 86% 9.0 mph WSW14.5 kmh WSW 14.0 mph22.5 kmh 30.00 in1015.9 mb 0.00 in0.0 mm 0.00 in0.0 mm 0.00 in0.0 mm
01:30 AM 44.4°F6.9°C 40.5°F4.7°C 86% 9.0 mph WSW14.5 kmh WSW 14.0 mph22.5 kmh 30.00 in1015.9 mb 0.00 in0.0 mm 0.00 in0.0 mm 0.00 in0.0 mm
01:35 AM 44.4°F6.9°C 40.5°F4.7°C 86% 9.0 mph W14.5 kmh W 14.0 mph22.5 kmh 30.00 in1015.9 mb 0.00 in0.0 mm 0.00 in0.0 mm 0.00 in0.0 mm
01:40 AM 44.3°F6.8°C 40.4°F4.7°C 86% 12.0 mph WNW19.3 kmh WNW 12.0 mph19.3 kmh 30.00 in1015.9 mb 0.00 in0.0 mm 0.00 in0.0 mm 0.00 in0.0 mm
01:45 AM 44.2°F6.8°C 40.0°F4.4°C 85% 15.0 mph W24.1 kmh W 18.0 mph29.0 kmh 29.99 in1015.6 mb 0.00 in0.0 mm 0.00 in0.0 mm 0.00 in0.0 mm
01:50 AM 44.1°F6.7°C 39.9°F4.4°C 85% 4.0 mph W6.4 kmh W 18.0 mph29.0 kmh 30.00 in1015.9 mb 0.00 in0.0 mm 0.00 in0.0 mm 0.00 in0.0 mm
01:55 AM 44.0°F6.7°C 39.8°F4.3°C 85% 9.0 mph W14.5 kmh W 9.0 mph14.5 kmh 30.00 in1015.9 mb 0.00 in0.0 mm 0.00 in0.0 mm 0.00 in0.0 mm
02:00 AM 44.0°F6.7°C 39.8°F4.3°C 85% 10.0 mph WNW16.1 kmh WNW 14.0 mph22.5 kmh 30.00 in1015.9 mb 0.00 in0.0 mm 0.00 in0.0 mm 0.00 in0.0 mm
02:05 AM 44.0°F6.7°C 40.1°F4.5°C 86% 8.0 mph WSW12.9 kmh WSW 14.0 mph22.5 kmh 30.00 in1015.9 mb 0.00 in0.0 mm 0.00 in0.0 mm 0.00 in0.0 mm
02:10 AM 43.9°F6.6°C 39.7°F4.3°C 85% 8.0 mph W12.9 kmh W 11.0 mph17.7 kmh 29.99 in1015.6 mb 0.00 in0.0 mm 0.00 in0.0 mm 0.00 in0.0 mm
02:15 AM 43.9°F6.6°C 39.7°F4.3°C 85% 13.0 mph W20.9 kmh W 15.0 mph24.1 kmh 29.99 in1015.6 mb 0.00 in0.0 mm 0.00 in0.0 mm 0.00 in0.0 mm
02:20 AM 43.8°F6.6°C 39.6°F4.2°C 85% 7.0 mph WSW11.3 kmh WSW 17.0 mph27.4 kmh 29.99 in1015.6 mb 0.00 in0.0 mm 0.00 in0.0 mm 0.00 in0.0 mm
02:25 AM 43.8°F6.6°C 39.6°F4.2°C 85% 7.0 mph W11.3 kmh W 10.0 mph16.1 kmh 29.99 in1015.6 mb 0.00 in0.0 mm 0.00 in0.0 mm 0.00 in0.0 mm
02:30 AM 43.8°F6.6°C 39.6°F4.2°C 85% 5.0 mph WNW8.0 kmh WNW 13.0 mph20.9 kmh 29.99 in1015.6 mb 0.00 in0.0 mm 0.00 in0.0 mm 0.00 in0.0 mm
02:35 AM 43.7°F6.5°C 39.5°F4.2°C 85% 6.0 mph W9.7 kmh W 13.0 mph20.9 kmh 29.99 in1015.6 mb 0.00 in0.0 mm 0.00 in0.0 mm 0.00 in0.0 mm
02:40 AM 43.7°F6.5°C 39.5°F4.2°C 85% 8.0 mph W12.9 kmh W 8.0 mph12.9 kmh 30.00 in1015.9 mb 0.00 in0.0 mm 0.00 in0.0 mm 0.00 in0.0 mm
02:45 AM 43.8°F6.6°C 39.6°F4.2°C 85% 3.0 mph WNW4.8 kmh WNW 12.0 mph19.3 kmh 30.00 in1015.9 mb 0.00 in0.0 mm 0.00 in0.0 mm 0.00 in0.0 mm
02:50 AM 43.7°F6.5°C 39.2°F4.0°C 84% 4.0 mph WNW6.4 kmh WNW 16.0 mph25.7 kmh 30.00 in1015.9 mb 0.00 in0.0 mm 0.00 in0.0 mm 0.00 in0.0 mm
02:55 AM 43.7°F6.5°C 39.2°F4.0°C 84% 6.0 mph W9.7 kmh W 9.0 mph14.5 kmh 29.99 in1015.6 mb 0.00 in0.0 mm 0.00 in0.0 mm 0.00 in0.0 mm
03:00 AM 43.8°F6.6°C 39.3°F4.1°C 84% 15.0 mph WNW24.1 kmh WNW 15.0 mph24.1 kmh 30.00 in1015.9 mb 0.00 in0.0 mm 0.00 in0.0 mm 0.00 in0.0 mm
03:05 AM 43.7°F6.5°C 38.9°F3.8°C 83% 16.0 mph WSW25.7 kmh WSW 16.0 mph25.7 kmh 30.00 in1015.9 mb 0.00 in0.0 mm 0.00 in0.0 mm 0.00 in0.0 mm
03:10 AM 43.7°F6.5°C 38.9°F3.8°C 83% 12.0 mph W19.3 kmh W 12.0 mph19.3 kmh 30.00 in1015.9 mb 0.00 in0.0 mm 0.00 in0.0 mm 0.00 in0.0 mm
03:15 AM 43.8°F6.6°C 38.4°F3.6°C 81% 10.0 mph WNW16.1 kmh WNW 13.0 mph20.9 kmh 29.99 in1015.6 mb 0.00 in0.0 mm 0.00 in0.0 mm 0.00 in0.0 mm
03:20 AM 43.7°F6.5°C 38.3°F3.5°C 81% 8.0 mph W12.9 kmh W 15.0 mph24.1 kmh 29.99 in1015.6 mb 0.00 in0.0 mm 0.00 in0.0 mm 0.00 in0.0 mm
03:25 AM 43.8°F6.6°C 38.4°F3.6°C 81% 7.0 mph W11.3 kmh W 10.0 mph16.1 kmh 29.99 in1015.6 mb 0.00 in0.0 mm 0.00 in0.0 mm 0.00 in0.0 mm
03:30 AM 43.7°F6.5°C 38.0°F3.3°C 80% 7.0 mph W11.3 kmh W 15.0 mph24.1 kmh 29.99 in1015.6 mb 0.00 in0.0 mm 0.00 in0.0 mm 0.00 in0.0 mm
03:35 AM 43.7°F6.5°C 37.3°F2.9°C 78% 11.0 mph W17.7 kmh W 19.0 mph30.6 kmh 29.99 in1015.6 mb 0.00 in0.0 mm 0.00 in0.0 mm 0.00 in0.0 mm
03:40 AM 43.7°F6.5°C 37.0°F2.8°C 77% 13.0 mph WNW20.9 kmh WNW 14.0 mph22.5 kmh 30.00 in1015.9 mb 0.00 in0.0 mm 0.00 in0.0 mm 0.00 in0.0 mm
03:45 AM 43.7°F6.5°C 36.3°F2.4°C 75% 3.0 mph W4.8 kmh W 17.0 mph27.4 kmh 30.00 in1015.9 mb 0.00 in0.0 mm 0.00 in0.0 mm 0.00 in0.0 mm
03:50 AM 43.6°F6.4°C 36.2°F2.3°C 75% 5.0 mph WSW8.0 kmh WSW 17.0 mph27.4 kmh 30.01 in1016.3 mb 0.00 in0.0 mm 0.00 in0.0 mm 0.00 in0.0 mm
03:55 AM 43.6°F6.4°C 35.5°F1.9°C 73% 16.0 mph WSW25.7 kmh WSW 20.0 mph32.2 kmh 30.01 in1016.3 mb 0.00 in0.0 mm 0.00 in0.0 mm 0.00 in0.0 mm
04:00 AM 43.6°F6.4°C 34.8°F1.6°C 71% 9.0 mph WNW14.5 kmh WNW 20.0 mph32.2 kmh 30.01 in1016.3 mb 0.00 in0.0 mm 0.00 in0.0 mm 0.00 in0.0 mm
04:05 AM 43.6°F6.4°C 34.1°F1.2°C 69% 10.0 mph WNW16.1 kmh WNW 20.0 mph32.2 kmh 30.02 in1016.6 mb 0.00 in0.0 mm 0.00 in0.0 mm 0.00 in0.0 mm
04:10 AM 43.7°F6.5°C 33.1°F0.6°C 66% 12.0 mph WNW19.3 kmh WNW 14.0 mph22.5 kmh 30.03 in1016.9 mb 0.00 in0.0 mm 0.00 in0.0 mm 0.00 in0.0 mm
04:15 AM 43.7°F6.5°C 33.1°F0.6°C 66% 7.0 mph WNW11.3 kmh WNW 15.0 mph24.1 kmh 30.03 in1016.9 mb 0.00 in0.0 mm 0.00 in0.0 mm 0.00 in0.0 mm
04:20 AM 43.7°F6.5°C 34.2°F1.2°C 69% 11.0 mph W17.7 kmh W 15.0 mph24.1 kmh 30.03 in1016.9 mb 0.00 in0.0 mm 0.00 in0.0 mm 0.00 in0.0 mm
04:25 AM 43.8°F6.6°C 33.9°F1.1°C 68% 8.0 mph WNW12.9 kmh WNW 11.0 mph17.7 kmh 30.04 in1017.3 mb 0.00 in0.0 mm 0.00 in0.0 mm 0.00 in0.0 mm
04:30 AM 43.7°F6.5°C 32.0°F0.0°C 63% 10.0 mph W16.1 kmh W 22.0 mph35.4 kmh 30.04 in1017.3 mb 0.00 in0.0 mm 0.00 in0.0 mm 0.00 in0.0 mm
04:35 AM 43.7°F6.5°C 32.3°F0.2°C 64% 12.0 mph WSW19.3 kmh WSW 22.0 mph35.4 kmh 30.04 in1017.3 mb 0.00 in0.0 mm 0.00 in0.0 mm 0.00 in0.0 mm
04:40 AM 43.7°F6.5°C 32.0°F0.0°C 63% 8.0 mph WNW12.9 kmh WNW 15.0 mph24.1 kmh 30.04 in1017.3 mb 0.00 in0.0 mm 0.00 in0.0 mm 0.00 in0.0 mm
04:45 AM 43.6°F6.4°C 31.5°F-0.3°C 62% 9.0 mph WNW14.5 kmh WNW 18.0 mph29.0 kmh 30.04 in1017.3 mb 0.00 in0.0 mm 0.00 in0.0 mm 0.00 in0.0 mm
04:50 AM 43.6°F6.4°C 31.1°F-0.5°C 61% 16.0 mph W25.7 kmh W 23.0 mph37.0 kmh 30.04 in1017.3 mb 0.00 in0.0 mm 0.00 in0.0 mm 0.00 in0.0 mm
04:55 AM 43.5°F6.4°C 30.1°F-1.1°C 59% 13.0 mph WNW20.9 kmh WNW 22.0 mph35.4 kmh 30.04 in1017.3 mb 0.00 in0.0 mm 0.00 in0.0 mm 0.00 in0.0 mm
05:00 AM 43.4°F6.3°C 30.0°F-1.1°C 59% 11.0 mph NW17.7 kmh NW 24.0 mph38.6 kmh 30.04 in1017.3 mb 0.00 in0.0 mm 0.00 in0.0 mm 0.00 in0.0 mm
05:05 AM 43.3°F6.3°C 30.4°F-0.9°C 60% 15.0 mph NW24.1 kmh NW 24.0 mph38.6 kmh 30.05 in1017.6 mb 0.00 in0.0 mm 0.00 in0.0 mm 0.00 in0.0 mm
05:10 AM 43.2°F6.2°C 29.9°F-1.2°C 59% 14.0 mph WSW22.5 kmh WSW 14.0 mph22.5 kmh 30.05 in1017.6 mb 0.00 in0.0 mm 0.00 in0.0 mm 0.00 in0.0 mm
05:15 AM 43.2°F6.2°C 29.9°F-1.2°C 59% 11.0 mph WNW17.7 kmh WNW 21.0 mph33.8 kmh 30.05 in1017.6 mb 0.00 in0.0 mm 0.00 in0.0 mm 0.00 in0.0 mm
05:20 AM 43.1°F6.2°C 28.9°F-1.7°C 57% 8.0 mph WNW12.9 kmh WNW 21.0 mph33.8 kmh 30.05 in1017.6 mb 0.00 in0.0 mm 0.00 in0.0 mm 0.00 in0.0 mm
05:25 AM 43.1°F6.2°C 27.2°F-2.7°C 53% 12.0 mph WNW19.3 kmh WNW 17.0 mph27.4 kmh 30.06 in1017.9 mb 0.00 in0.0 mm 0.00 in0.0 mm 0.00 in0.0 mm
05:30 AM 43.1°F6.2°C 27.2°F-2.7°C 53% 16.0 mph NW25.7 kmh NW 26.0 mph41.8 kmh 30.06 in1017.9 mb 0.00 in0.0 mm 0.00 in0.0 mm 0.00 in0.0 mm
05:35 AM 43.0°F6.1°C 27.5°F-2.5°C 54% 9.0 mph WNW14.5 kmh WNW 26.0 mph41.8 kmh 30.07 in1018.3 mb 0.00 in0.0 mm 0.00 in0.0 mm 0.00 in0.0 mm
05:40 AM 43.0°F6.1°C 26.6°F-3.0°C 52% 7.0 mph W11.3 kmh W 15.0 mph24.1 kmh 30.07 in1018.3 mb 0.00 in0.0 mm 0.00 in0.0 mm 0.00 in0.0 mm
05:45 AM 42.9°F6.1°C 27.4°F-2.6°C 54% 12.0 mph WNW19.3 kmh WNW 17.0 mph27.4 kmh 30.07 in1018.3 mb 0.00 in0.0 mm 0.00 in0.0 mm 0.00 in0.0 mm
05:50 AM 42.9°F6.1°C 27.9°F-2.3°C 55% 4.0 mph WNW6.4 kmh WNW 18.0 mph29.0 kmh 30.07 in1018.3 mb 0.00 in0.0 mm 0.00 in0.0 mm 0.00 in0.0 mm
05:55 AM 42.8°F6.0°C 29.5°F-1.4°C 59% 8.0 mph W12.9 kmh W 19.0 mph30.6 kmh 30.07 in1018.3 mb 0.00 in0.0 mm 0.00 in0.0 mm 0.00 in0.0 mm
06:00 AM 42.6°F5.9°C 29.3°F-1.5°C 59% 7.0 mph WNW11.3 kmh WNW 19.0 mph30.6 kmh 30.08 in1018.6 mb 0.00 in0.0 mm 0.00 in0.0 mm 0.00 in0.0 mm
06:05 AM 42.2°F5.7°C 24.9°F-3.9°C 50% 11.0 mph W17.7 kmh W 21.0 mph33.8 kmh 30.08 in1018.6 mb 0.00 in0.0 mm 0.00 in0.0 mm 0.00 in0.0 mm
06:10 AM 42.0°F5.6°C 23.8°F-4.6°C 48% 12.0 mph WNW19.3 kmh WNW 12.0 mph19.3 kmh 30.08 in1018.6 mb 0.00 in0.0 mm 0.00 in0.0 mm 0.00 in0.0 mm
06:15 AM 41.8°F5.4°C 24.1°F-4.4°C 49% 15.0 mph NW24.1 kmh NW 19.0 mph30.6 kmh 30.09 in1019.0 mb 0.00 in0.0 mm 0.00 in0.0 mm 0.00 in0.0 mm
06:20 AM 41.5°F5.3°C 22.3°F-5.4°C 46% 14.0 mph NW22.5 kmh NW 22.0 mph35.4 kmh 30.09 in1019.0 mb 0.00 in0.0 mm 0.00 in0.0 mm 0.00 in0.0 mm
06:25 AM 41.2°F5.1°C 25.8°F-3.4°C 54% 11.0 mph W17.7 kmh W 16.0 mph25.7 kmh 30.09 in1019.0 mb 0.00 in0.0 mm 0.00 in0.0 mm 0.00 in0.0 mm
06:30 AM 40.9°F4.9°C 25.1°F-3.8°C 53% 10.0 mph W16.1 kmh W 16.0 mph25.7 kmh 30.10 in1019.3 mb 0.00 in0.0 mm 0.00 in0.0 mm 0.00 in0.0 mm
06:35 AM 40.5°F4.7°C 24.3°F-4.3°C 52% 8.0 mph W12.9 kmh W 21.0 mph33.8 kmh 30.10 in1019.3 mb 0.00 in0.0 mm 0.00 in0.0 mm 0.00 in0.0 mm
06:40 AM 40.2°F4.6°C 24.0°F-4.4°C 52% 8.0 mph W12.9 kmh W 14.0 mph22.5 kmh 30.11 in1019.6 mb 0.00 in0.0 mm 0.00 in0.0 mm 0.00 in0.0 mm
06:45 AM 40.0°F4.4°C 23.8°F-4.6°C 52% 10.0 mph WNW16.1 kmh WNW 16.0 mph25.7 kmh 30.12 in1020.0 mb 0.00 in0.0 mm 0.00 in0.0 mm 0.00 in0.0 mm
06:50 AM 39.8°F4.3°C 23.6°F-4.7°C 52% 9.0 mph W14.5 kmh W 18.0 mph29.0 kmh 30.12 in1020.0 mb 0.00 in0.0 mm 0.00 in0.0 mm 0.00 in0.0 mm
06:55 AM 39.7°F4.3°C 23.5°F-4.7°C 52% 12.0 mph WSW19.3 kmh WSW 16.0 mph25.7 kmh 30.12 in1020.0 mb 0.00 in0.0 mm 0.00 in0.0 mm 0.00 in0.0 mm
07:00 AM 39.6°F4.2°C 23.9°F-4.5°C 53% 6.0 mph W9.7 kmh W 16.0 mph25.7 kmh 30.12 in1020.0 mb 0.00 in0.0 mm 0.00 in0.0 mm 0.00 in0.0 mm
07:05 AM 39.6°F4.2°C 22.5°F-5.3°C 50% 11.0 mph WSW17.7 kmh WSW 21.0 mph33.8 kmh 30.13 in1020.3 mb 0.00 in0.0 mm 0.00 in0.0 mm 0.00 in0.0 mm
07:10 AM 39.6°F4.2°C 23.0°F-5.0°C 51% 7.0 mph WNW11.3 kmh WNW 12.0 mph19.3 kmh 30.14 in1020.7 mb 0.00 in0.0 mm 0.00 in0.0 mm 0.00 in0.0 mm
07:15 AM 39.6°F4.2°C 23.0°F-5.0°C 51% 10.0 mph WSW16.1 kmh WSW 15.0 mph24.1 kmh 30.14 in1020.7 mb 0.00 in0.0 mm 0.00 in0.0 mm 0.00 in0.0 mm
07:20 AM 39.6°F4.2°C 22.0°F-5.6°C 49% 9.0 mph NW14.5 kmh NW 22.0 mph35.4 kmh 30.15 in1021.0 mb 0.00 in0.0 mm 0.00 in0.0 mm 0.00 in0.0 mm
07:25 AM 39.6°F4.2°C 22.5°F-5.3°C 50% 9.0 mph WNW14.5 kmh WNW 15.0 mph24.1 kmh 30.15 in1021.0 mb 0.00 in0.0 mm 0.00 in0.0 mm 0.00 in0.0 mm
07:30 AM 39.7°F4.3°C 22.1°F-5.5°C 49% 10.0 mph WNW16.1 kmh WNW 15.0 mph24.1 kmh 30.15 in1021.0 mb 0.00 in0.0 mm 0.00 in0.0 mm 0.00 in0.0 mm
07:35 AM 39.5°F4.2°C 19.4°F-7.0°C 44% 10.0 mph WNW16.1 kmh WNW 22.0 mph35.4 kmh 30.15 in1021.0 mb 0.00 in0.0 mm 0.00 in0.0 mm 0.00 in0.0 mm
07:40 AM 39.6°F4.2°C 20.0°F-6.7°C 45% 11.0 mph W17.7 kmh W 18.0 mph29.0 kmh 30.16 in1021.3 mb 0.00 in0.0 mm 0.00 in0.0 mm 0.00 in0.0 mm
07:45 AM 39.8°F4.3°C 19.7°F-6.8°C 44% 7.0 mph WNW11.3 kmh WNW 24.0 mph38.6 kmh 30.16 in1021.3 mb 0.00 in0.0 mm 0.00 in0.0 mm 0.00 in0.0 mm
07:50 AM 39.9°F4.4°C 20.3°F-6.5°C 45% 11.0 mph WNW17.7 kmh WNW 24.0 mph38.6 kmh 30.16 in1021.3 mb 0.00 in0.0 mm 0.00 in0.0 mm 0.00 in0.0 mm
07:55 AM 40.1°F4.5°C 20.5°F-6.4°C 45% 13.0 mph W20.9 kmh W 19.0 mph30.6 kmh 30.16 in1021.3 mb 0.00 in0.0 mm 0.00 in0.0 mm 0.00 in0.0 mm
08:00 AM 40.1°F4.5°C 18.3°F-7.6°C 41% 9.0 mph WSW14.5 kmh WSW 19.0 mph30.6 kmh 30.16 in1021.3 mb 0.00 in0.0 mm 0.00 in0.0 mm 0.00 in0.0 mm
08:05 AM 40.2°F4.6°C 19.0°F-7.2°C 42% 15.0 mph WNW24.1 kmh WNW 21.0 mph33.8 kmh 30.16 in1021.3 mb 0.00 in0.0 mm 0.00 in0.0 mm 0.00 in0.0 mm
08:10 AM 40.2°F4.6°C 19.0°F-7.2°C 42% 16.0 mph WSW25.7 kmh WSW 17.0 mph27.4 kmh 30.16 in1021.3 mb 0.00 in0.0 mm 0.00 in0.0 mm 0.00 in0.0 mm
08:15 AM 40.3°F4.6°C 19.6°F-6.9°C 43% 12.0 mph W19.3 kmh W 20.0 mph32.2 kmh 30.17 in1021.7 mb 0.00 in0.0 mm 0.00 in0.0 mm 0.00 in0.0 mm
08:20 AM 40.2°F4.6°C 19.0°F-7.2°C 42% 12.0 mph W19.3 kmh W 23.0 mph37.0 kmh 30.17 in1021.7 mb 0.00 in0.0 mm 0.00 in0.0 mm 0.00 in0.0 mm
08:25 AM 40.3°F4.6°C 17.3°F-8.2°C 39% 14.0 mph WNW22.5 kmh WNW 17.0 mph27.4 kmh 30.17 in1021.7 mb 0.00 in0.0 mm 0.00 in0.0 mm 0.00 in0.0 mm
08:30 AM 40.3°F4.6°C 17.3°F-8.2°C 39% 17.0 mph WNW27.4 kmh WNW 24.0 mph38.6 kmh 30.18 in1022.0 mb 0.00 in0.0 mm 0.00 in0.0 mm 0.00 in0.0 mm
08:35 AM 40.3°F4.6°C 17.9°F-7.8°C 40% 11.0 mph W17.7 kmh W 24.0 mph38.6 kmh 30.18 in1022.0 mb 0.00 in0.0 mm 0.00 in0.0 mm 0.00 in0.0 mm
08:40 AM 40.5°F4.7°C 17.5°F-8.1°C 39% 9.0 mph W14.5 kmh W 16.0 mph25.7 kmh 30.19 in1022.4 mb 0.00 in0.0 mm 0.00 in0.0 mm 0.00 in0.0 mm
08:45 AM 40.5°F4.7°C 18.1°F-7.7°C 40% 17.0 mph WSW27.4 kmh WSW 28.0 mph45.1 kmh 30.19 in1022.4 mb 0.00 in0.0 mm 0.00 in0.0 mm 0.00 in0.0 mm
08:50 AM 40.6°F4.8°C 18.2°F-7.7°C 40% 10.0 mph NW16.1 kmh NW 28.0 mph45.1 kmh 30.19 in1022.4 mb 0.00 in0.0 mm 0.00 in0.0 mm 0.00 in0.0 mm
08:55 AM 40.7°F4.8°C 19.4°F-7.0°C 42% 9.0 mph WNW14.5 kmh WNW 16.0 mph25.7 kmh 30.19 in1022.4 mb 0.00 in0.0 mm 0.00 in0.0 mm 0.00 in0.0 mm
09:00 AM 40.4°F4.7°C 16.8°F-8.4°C 38% 8.0 mph WNW12.9 kmh WNW 27.0 mph43.5 kmh 30.20 in1022.7 mb 0.00 in0.0 mm 0.00 in0.0 mm 0.00 in0.0 mm
09:05 AM 40.8°F4.9°C 18.4°F-7.6°C 40% 15.0 mph W24.1 kmh W 27.0 mph43.5 kmh 30.20 in1022.7 mb 0.00 in0.0 mm 0.00 in0.0 mm 0.00 in0.0 mm
09:10 AM 41.0°F5.0°C 19.7°F-6.8°C 42% 12.0 mph WNW19.3 kmh WNW 17.0 mph27.4 kmh 30.20 in1022.7 mb 0.00 in0.0 mm 0.00 in0.0 mm 0.00 in0.0 mm
09:15 AM 40.5°F4.7°C 16.3°F-8.7°C 37% 4.0 mph WNW6.4 kmh WNW 22.0 mph35.4 kmh 30.20 in1022.7 mb 0.00 in0.0 mm 0.00 in0.0 mm 0.00 in0.0 mm
09:20 AM 40.3°F4.6°C 17.9°F-7.8°C 40% 7.0 mph WNW11.3 kmh WNW 22.0 mph35.4 kmh 30.20 in1022.7 mb 0.00 in0.0 mm 0.00 in0.0 mm 0.00 in0.0 mm
09:25 AM 40.7°F4.8°C 17.7°F-7.9°C 39% 12.0 mph WNW19.3 kmh WNW 18.0 mph29.0 kmh 30.21 in1023.0 mb 0.00 in0.0 mm 0.00 in0.0 mm 0.00 in0.0 mm
09:30 AM 40.6°F4.8°C 19.3°F-7.1°C 42% 14.0 mph WNW22.5 kmh WNW 23.0 mph37.0 kmh 30.20 in1022.7 mb 0.00 in0.0 mm 0.00 in0.0 mm 0.00 in0.0 mm
09:35 AM 40.8°F4.9°C 17.2°F-8.2°C 38% 12.0 mph WNW19.3 kmh WNW 23.0 mph37.0 kmh 30.21 in1023.0 mb 0.00 in0.0 mm 0.00 in0.0 mm 0.00 in0.0 mm
09:40 AM 40.9°F4.9°C 19.6°F-6.9°C 42% 17.0 mph W27.4 kmh W 20.0 mph32.2 kmh 30.21 in1023.0 mb 0.00 in0.0 mm 0.00 in0.0 mm 0.00 in0.0 mm
09:45 AM 41.7°F5.4°C 19.8°F-6.8°C 41% 12.0 mph W19.3 kmh W 20.0 mph32.2 kmh 30.21 in1023.0 mb 0.00 in0.0 mm 0.00 in0.0 mm 0.00 in0.0 mm
09:50 AM 41.0°F5.0°C 19.7°F-6.8°C 42% 10.0 mph WNW16.1 kmh WNW 24.0 mph38.6 kmh 30.22 in1023.4 mb 0.00 in0.0 mm 0.00 in0.0 mm 0.00 in0.0 mm
09:55 AM 40.7°F4.8°C 17.7°F-7.9°C 39% 15.0 mph W24.1 kmh W 21.0 mph33.8 kmh 30.21 in1023.0 mb 0.00 in0.0 mm 0.00 in0.0 mm 0.00 in0.0 mm
10:00 AM 41.1°F5.1°C 18.6°F-7.4°C 40% 12.0 mph WSW19.3 kmh WSW 21.0 mph33.8 kmh 30.21 in1023.0 mb 0.00 in0.0 mm 0.00 in0.0 mm 0.00 in0.0 mm
10:05 AM 41.3°F5.2°C 18.8°F-7.3°C 40% 9.0 mph WSW14.5 kmh WSW 21.0 mph33.8 kmh 30.22 in1023.4 mb 0.00 in0.0 mm 0.00 in0.0 mm 0.00 in0.0 mm
10:10 AM 41.3°F5.2°C 19.4°F-7.0°C 41% 6.0 mph W9.7 kmh W 13.0 mph20.9 kmh 30.22 in1023.4 mb 0.00 in0.0 mm 0.00 in0.0 mm 0.00 in0.0 mm
10:15 AM 41.7°F5.4°C 19.2°F-7.1°C 40% 6.0 mph WNW9.7 kmh WNW 20.0 mph32.2 kmh 30.22 in1023.4 mb 0.00 in0.0 mm 0.00 in0.0 mm 0.00 in0.0 mm
10:20 AM 41.9°F5.5°C 18.2°F-7.7°C 38% 9.0 mph W14.5 kmh W 20.0 mph32.2 kmh 30.23 in1023.7 mb 0.00 in0.0 mm 0.00 in0.0 mm 0.00 in0.0 mm
10:25 AM 41.4°F5.2°C 18.9°F-7.3°C 40% 12.0 mph WSW19.3 kmh WSW 13.0 mph20.9 kmh 30.22 in1023.4 mb 0.00 in0.0 mm 0.00 in0.0 mm 0.00 in0.0 mm
10:30 AM 41.5°F5.3°C 20.1°F-6.6°C 42% 19.0 mph WSW30.6 kmh WSW 27.0 mph43.5 kmh 30.22 in1023.4 mb 0.00 in0.0 mm 0.00 in0.0 mm 0.00 in0.0 mm
10:35 AM 41.9°F5.5°C 21.6°F-5.8°C 44% 6.0 mph W9.7 kmh W 27.0 mph43.5 kmh 30.22 in1023.4 mb 0.00 in0.0 mm 0.00 in0.0 mm 0.00 in0.0 mm
10:40 AM 41.8°F5.4°C 18.7°F-7.4°C 39% 12.0 mph SW19.3 kmh SW 19.0 mph30.6 kmh 30.23 in1023.7 mb 0.00 in0.0 mm 0.00 in0.0 mm 0.00 in0.0 mm
10:45 AM 42.0°F5.6°C 18.3°F-7.6°C 38% 7.0 mph W11.3 kmh W 19.0 mph30.6 kmh 30.23 in1023.7 mb 0.00 in0.0 mm 0.00 in0.0 mm 0.00 in0.0 mm
10:50 AM 42.1°F5.6°C 19.0°F-7.2°C 39% 15.0 mph WNW24.1 kmh WNW 19.0 mph30.6 kmh 30.22 in1023.4 mb 0.00 in0.0 mm 0.00 in0.0 mm 0.00 in0.0 mm
10:55 AM 42.4°F5.8°C 19.8°F-6.8°C 40% 7.0 mph W11.3 kmh W 13.0 mph20.9 kmh 30.23 in1023.7 mb 0.00 in0.0 mm 0.00 in0.0 mm 0.00 in0.0 mm
11:00 AM 42.4°F5.8°C 18.6°F-7.4°C 38% 9.0 mph WNW14.5 kmh WNW 18.0 mph29.0 kmh 30.23 in1023.7 mb 0.00 in0.0 mm 0.00 in0.0 mm 0.00 in0.0 mm
11:05 AM 42.3°F5.7°C 20.3°F-6.5°C 41% 5.0 mph WNW8.0 kmh WNW 19.0 mph30.6 kmh 30.23 in1023.7 mb 0.00 in0.0 mm 0.00 in0.0 mm 0.00 in0.0 mm
11:10 AM 42.3°F5.7°C 21.4°F-5.9°C 43% 7.0 mph W11.3 kmh W 14.0 mph22.5 kmh 30.23 in1023.7 mb 0.00 in0.0 mm 0.00 in0.0 mm 0.00 in0.0 mm
11:15 AM 42.7°F5.9°C 22.3°F-5.4°C 44% 11.0 mph WSW17.7 kmh WSW 15.0 mph24.1 kmh 30.23 in1023.7 mb 0.00 in0.0 mm 0.00 in0.0 mm 0.00 in0.0 mm
11:20 AM 42.4°F5.8°C 21.5°F-5.8°C 43% 9.0 mph W14.5 kmh W 26.0 mph41.8 kmh 30.23 in1023.7 mb 0.00 in0.0 mm 0.00 in0.0 mm 0.00 in0.0 mm
11:25 AM 42.3°F5.7°C 22.0°F-5.6°C 44% 11.0 mph WSW17.7 kmh WSW 13.0 mph20.9 kmh 30.23 in1023.7 mb 0.00 in0.0 mm 0.00 in0.0 mm 0.00 in0.0 mm
11:30 AM 42.2°F5.7°C 22.4°F-5.3°C 45% 18.0 mph W29.0 kmh W 21.0 mph33.8 kmh 30.23 in1023.7 mb 0.00 in0.0 mm 0.00 in0.0 mm 0.00 in0.0 mm
11:35 AM 42.2°F5.7°C 21.9°F-5.6°C 44% 9.0 mph W14.5 kmh W 21.0 mph33.8 kmh 30.23 in1023.7 mb 0.00 in0.0 mm 0.00 in0.0 mm 0.00 in0.0 mm
11:40 AM 42.3°F5.7°C 20.9°F-6.2°C 42% 18.0 mph W29.0 kmh W 18.0 mph29.0 kmh 30.23 in1023.7 mb 0.00 in0.0 mm 0.00 in0.0 mm 0.00 in0.0 mm
11:45 AM 42.6°F5.9°C 22.8°F-5.1°C 45% 8.0 mph WSW12.9 kmh WSW 18.0 mph29.0 kmh 30.23 in1023.7 mb 0.00 in0.0 mm 0.00 in0.0 mm 0.00 in0.0 mm
11:50 AM 42.6°F5.9°C 21.7°F-5.7°C 43% 10.0 mph WSW16.1 kmh WSW 18.0 mph29.0 kmh 30.23 in1023.7 mb 0.00 in0.0 mm 0.00 in0.0 mm 0.00 in0.0 mm
11:55 AM 42.9°F6.1°C 21.4°F-5.9°C 42% 14.0 mph WSW22.5 kmh WSW 16.0 mph25.7 kmh 30.22 in1023.4 mb 0.00 in0.0 mm 0.00 in0.0 mm 0.00 in0.0 mm
12:00 PM 42.4°F5.8°C 22.6°F-5.2°C 45% 10.0 mph WNW16.1 kmh WNW 21.0 mph33.8 kmh 30.23 in1023.7 mb 0.00 in0.0 mm 0.00 in0.0 mm 0.00 in0.0 mm
12:05 PM 42.8°F6.0°C 21.3°F-5.9°C 42% 7.0 mph W11.3 kmh W 21.0 mph33.8 kmh 30.23 in1023.7 mb 0.00 in0.0 mm 0.00 in0.0 mm 0.00 in0.0 mm
12:10 PM 42.8°F6.0°C 21.9°F-5.6°C 43% 18.0 mph WSW29.0 kmh WSW 18.0 mph29.0 kmh 30.22 in1023.4 mb 0.00 in0.0 mm 0.00 in0.0 mm 0.00 in0.0 mm
12:15 PM 42.6°F5.9°C 21.7°F-5.7°C 43% 10.0 mph W16.1 kmh W 24.0 mph38.6 kmh 30.22 in1023.4 mb 0.00 in0.0 mm 0.00 in0.0 mm 0.00 in0.0 mm
12:20 PM 43.3°F6.3°C 22.3°F-5.4°C 43% 9.0 mph W14.5 kmh W 24.0 mph38.6 kmh 30.22 in1023.4 mb 0.00 in0.0 mm 0.00 in0.0 mm 0.00 in0.0 mm
12:25 PM 43.3°F6.3°C 21.2°F-6.0°C 41% 9.0 mph SW14.5 kmh SW 15.0 mph24.1 kmh 30.22 in1023.4 mb 0.00 in0.0 mm 0.00 in0.0 mm 0.00 in0.0 mm
12:30 PM 43.2°F6.2°C 22.8°F-5.1°C 44% 12.0 mph W19.3 kmh W 18.0 mph29.0 kmh 30.22 in1023.4 mb 0.00 in0.0 mm 0.00 in0.0 mm 0.00 in0.0 mm
12:35 PM 43.3°F6.3°C 21.2°F-6.0°C 41% 15.0 mph NW24.1 kmh NW 25.0 mph40.2 kmh 30.22 in1023.4 mb 0.00 in0.0 mm 0.00 in0.0 mm 0.00 in0.0 mm
12:40 PM 43.2°F6.2°C 21.1°F-6.1°C 41% 13.0 mph WSW20.9 kmh WSW 16.0 mph25.7 kmh 30.22 in1023.4 mb 0.00 in0.0 mm 0.00 in0.0 mm 0.00 in0.0 mm
12:45 PM 43.2°F6.2°C 21.7°F-5.7°C 42% 17.0 mph WSW27.4 kmh WSW 18.0 mph29.0 kmh 30.22 in1023.4 mb 0.00 in0.0 mm 0.00 in0.0 mm 0.00 in0.0 mm
12:50 PM 43.5°F6.4°C 22.5°F-5.3°C 43% 9.0 mph W14.5 kmh W 22.0 mph35.4 kmh 30.21 in1023.0 mb 0.00 in0.0 mm 0.00 in0.0 mm 0.00 in0.0 mm
12:55 PM 43.5°F6.4°C 20.2°F-6.6°C 39% 11.0 mph WSW17.7 kmh WSW 15.0 mph24.1 kmh 30.22 in1023.4 mb 0.00 in0.0 mm 0.00 in0.0 mm 0.00 in0.0 mm
01:00 PM 43.3°F6.3°C 21.2°F-6.0°C 41% 13.0 mph WNW20.9 kmh WNW 17.0 mph27.4 kmh 30.21 in1023.0 mb 0.00 in0.0 mm 0.00 in0.0 mm 0.00 in0.0 mm
01:05 PM 43.9°F6.6°C 21.2°F-6.0°C 40% 12.0 mph WSW19.3 kmh WSW 17.0 mph27.4 kmh 30.21 in1023.0 mb 0.00 in0.0 mm 0.00 in0.0 mm 0.00 in0.0 mm
01:10 PM 43.9°F6.6°C 20.6°F-6.3°C 39% 13.0 mph WSW20.9 kmh WSW 13.0 mph20.9 kmh 30.21 in1023.0 mb 0.00 in0.0 mm 0.00 in0.0 mm 0.00 in0.0 mm
01:15 PM 44.0°F6.7°C 23.0°F-5.0°C 43% 3.0 mph W4.8 kmh W 23.0 mph37.0 kmh 30.21 in1023.0 mb 0.00 in0.0 mm 0.00 in0.0 mm 0.00 in0.0 mm
01:20 PM 44.2°F6.8°C 20.8°F-6.2°C 39% 7.0 mph WNW11.3 kmh WNW 23.0 mph37.0 kmh 30.21 in1023.0 mb 0.00 in0.0 mm 0.00 in0.0 mm 0.00 in0.0 mm
01:25 PM 44.2°F6.8°C 24.2°F-4.3°C 45% 12.0 mph SW19.3 kmh SW 13.0 mph20.9 kmh 30.21 in1023.0 mb 0.00 in0.0 mm 0.00 in0.0 mm 0.00 in0.0 mm
01:30 PM 44.4°F6.9°C 22.2°F-5.4°C 41% 9.0 mph WSW14.5 kmh WSW 17.0 mph27.4 kmh 30.21 in1023.0 mb 0.00 in0.0 mm 0.00 in0.0 mm 0.00 in0.0 mm
01:35 PM 44.0°F6.7°C 21.8°F-5.7°C 41% 12.0 mph WSW19.3 kmh WSW 21.0 mph33.8 kmh 30.21 in1023.0 mb 0.00 in0.0 mm 0.00 in0.0 mm 0.00 in0.0 mm
01:40 PM 44.4°F6.9°C 22.2°F-5.4°C 41% 9.0 mph W14.5 kmh W 13.0 mph20.9 kmh 30.21 in1023.0 mb 0.00 in0.0 mm 0.00 in0.0 mm 0.00 in0.0 mm
01:50 PM 44.3°F6.8°C 22.1°F-5.5°C 41% 10.0 mph WNW16.1 kmh WNW 18.0 mph29.0 kmh 30.20 in1022.7 mb 0.00 in0.0 mm 0.00 in0.0 mm 0.00 in0.0 mm
02:00 PM 44.7°F7.1°C 23.0°F-5.0°C 42% 16.0 mph WNW25.7 kmh WNW 16.0 mph25.7 kmh 30.20 in1022.7 mb 0.00 in0.0 mm 0.00 in0.0 mm 0.00 in0.0 mm
02:10 PM 44.7°F7.1°C 21.9°F-5.6°C 40% 11.0 mph WNW17.7 kmh WNW 19.0 mph30.6 kmh 30.20 in1022.7 mb 0.00 in0.0 mm 0.00 in0.0 mm 0.00 in0.0 mm
02:20 PM 45.1°F7.3°C 21.0°F-6.1°C 38% 12.0 mph W19.3 kmh W 22.0 mph35.4 kmh 30.20 in1022.7 mb 0.00 in0.0 mm 0.00 in0.0 mm 0.00 in0.0 mm
02:30 PM 45.5°F7.5°C 18.8°F-7.3°C 34% 11.0 mph WNW17.7 kmh WNW 18.0 mph29.0 kmh 30.20 in1022.7 mb 0.00 in0.0 mm 0.00 in0.0 mm 0.00 in0.0 mm
02:40 PM 46.0°F7.8°C 17.8°F-7.9°C 32% 8.0 mph W12.9 kmh W 15.0 mph24.1 kmh 30.20 in1022.7 mb 0.00 in0.0 mm 0.00 in0.0 mm 0.00 in0.0 mm
02:50 PM 45.7°F7.6°C 19.0°F-7.2°C 34% 12.0 mph WNW19.3 kmh WNW 20.0 mph32.2 kmh 30.21 in1023.0 mb 0.00 in0.0 mm 0.00 in0.0 mm 0.00 in0.0 mm
03:00 PM 45.9°F7.7°C 20.5°F-6.4°C 36% 11.0 mph WNW17.7 kmh WNW 17.0 mph27.4 kmh 30.20 in1022.7 mb 0.00 in0.0 mm 0.00 in0.0 mm 0.00 in0.0 mm
03:10 PM 46.3°F7.9°C 19.5°F-6.9°C 34% 10.0 mph WNW16.1 kmh WNW 21.0 mph33.8 kmh 30.20 in1022.7 mb 0.00 in0.0 mm 0.00 in0.0 mm 0.00 in0.0 mm
03:20 PM 46.4°F8.0°C 20.3°F-6.5°C 35% 18.0 mph WSW29.0 kmh WSW 21.0 mph33.8 kmh 30.20 in1022.7 mb 0.00 in0.0 mm 0.00 in0.0 mm 0.00 in0.0 mm
03:30 PM 46.0°F7.8°C 20.6°F-6.3°C 36% 9.0 mph W14.5 kmh W 20.0 mph32.2 kmh 30.21 in1023.0 mb 0.00 in0.0 mm 0.00 in0.0 mm 0.00 in0.0 mm
03:40 PM 45.9°F7.7°C 19.1°F-7.2°C 34% 16.0 mph WSW25.7 kmh WSW 22.0 mph35.4 kmh 30.21 in1023.0 mb 0.00 in0.0 mm 0.00 in0.0 mm 0.00 in0.0 mm
03:50 PM 46.3°F7.9°C 20.2°F-6.6°C 35% 8.0 mph W12.9 kmh W 22.0 mph35.4 kmh 30.21 in1023.0 mb 0.00 in0.0 mm 0.00 in0.0 mm 0.00 in0.0 mm
03:55 PM 46.5°F8.1°C 20.3°F-6.5°C 35% 10.0 mph NW16.1 kmh NW 15.0 mph24.1 kmh 30.21 in1023.0 mb 0.00 in0.0 mm 0.00 in0.0 mm 0.00 in0.0 mm
04:00 PM 46.5°F8.1°C 16.0°F-8.9°C 29% 7.0 mph WSW11.3 kmh WSW 17.0 mph27.4 kmh 30.21 in1023.0 mb 0.00 in0.0 mm 0.00 in0.0 mm 0.00 in0.0 mm
04:05 PM 46.7°F8.2°C 19.1°F-7.2°C 33% 6.0 mph W9.7 kmh W 17.0 mph27.4 kmh 30.21 in1023.0 mb 0.00 in0.0 mm 0.00 in0.0 mm 0.00 in0.0 mm
04:10 PM 46.4°F8.0°C 16.7°F-8.5°C 30% 11.0 mph WNW17.7 kmh WNW 12.0 mph19.3 kmh 30.22 in1023.4 mb 0.00 in0.0 mm 0.00 in0.0 mm 0.00 in0.0 mm
04:15 PM 46.6°F8.1°C 19.8°F-6.8°C 34% 10.0 mph WSW16.1 kmh WSW 18.0 mph29.0 kmh 30.22 in1023.4 mb 0.00 in0.0 mm 0.00 in0.0 mm 0.00 in0.0 mm
04:20 PM 46.5°F8.1°C 19.0°F-7.2°C 33% 4.0 mph WNW6.4 kmh WNW 18.0 mph29.0 kmh 30.22 in1023.4 mb 0.00 in0.0 mm 0.00 in0.0 mm 0.00 in0.0 mm
04:25 PM 46.4°F8.0°C 18.9°F-7.3°C 33% 13.0 mph W20.9 kmh W 14.0 mph22.5 kmh 30.22 in1023.4 mb 0.00 in0.0 mm 0.00 in0.0 mm 0.00 in0.0 mm
04:30 PM 46.5°F8.1°C 18.3°F-7.6°C 32% 9.0 mph W14.5 kmh W 17.0 mph27.4 kmh 30.22 in1023.4 mb 0.00 in0.0 mm 0.00 in0.0 mm 0.00 in0.0 mm
04:35 PM 46.4°F8.0°C 18.9°F-7.3°C 33% 15.0 mph WSW24.1 kmh WSW 21.0 mph33.8 kmh 30.22 in1023.4 mb 0.00 in0.0 mm 0.00 in0.0 mm 0.00 in0.0 mm
04:40 PM 46.6°F8.1°C 19.8°F-6.8°C 34% 7.0 mph WNW11.3 kmh WNW 13.0 mph20.9 kmh 30.22 in1023.4 mb 0.00 in0.0 mm 0.00 in0.0 mm 0.00 in0.0 mm
04:45 PM 46.5°F8.1°C 18.3°F-7.6°C 32% 11.0 mph NW17.7 kmh NW 15.0 mph24.1 kmh 30.22 in1023.4 mb 0.00 in0.0 mm 0.00 in0.0 mm 0.00 in0.0 mm
04:50 PM 46.5°F8.1°C 19.7°F-6.8°C 34% 6.0 mph W9.7 kmh W 15.0 mph24.1 kmh 30.22 in1023.4 mb 0.00 in0.0 mm 0.00 in0.0 mm 0.00 in0.0 mm
04:55 PM 46.4°F8.0°C 18.9°F-7.3°C 33% 13.0 mph W20.9 kmh W 13.0 mph20.9 kmh 30.22 in1023.4 mb 0.00 in0.0 mm 0.00 in0.0 mm 0.00 in0.0 mm
05:00 PM 46.2°F7.9°C 18.7°F-7.4°C 33% 5.0 mph WNW8.0 kmh WNW 14.0 mph22.5 kmh 30.23 in1023.7 mb 0.00 in0.0 mm 0.00 in0.0 mm 0.00 in0.0 mm
05:05 PM 46.3°F7.9°C 18.8°F-7.3°C 33% 8.0 mph W12.9 kmh W 14.0 mph22.5 kmh 30.22 in1023.4 mb 0.00 in0.0 mm 0.00 in0.0 mm 0.00 in0.0 mm
05:10 PM 46.3°F7.9°C 20.8°F-6.2°C 36% 5.0 mph WNW8.0 kmh WNW 9.0 mph14.5 kmh 30.23 in1023.7 mb 0.00 in0.0 mm 0.00 in0.0 mm 0.00 in0.0 mm
05:15 PM 46.2°F7.9°C 22.0°F-5.6°C 38% 13.0 mph WNW20.9 kmh WNW 13.0 mph20.9 kmh 30.23 in1023.7 mb 0.00 in0.0 mm 0.00 in0.0 mm 0.00 in0.0 mm
05:20 PM 46.1°F7.8°C 21.3°F-5.9°C 37% 7.0 mph W11.3 kmh W 13.0 mph20.9 kmh 30.23 in1023.7 mb 0.00 in0.0 mm 0.00 in0.0 mm 0.00 in0.0 mm
05:25 PM 46.1°F7.8°C 20.7°F-6.3°C 36% 7.0 mph WNW11.3 kmh WNW 11.0 mph17.7 kmh 30.23 in1023.7 mb 0.00 in0.0 mm 0.00 in0.0 mm 0.00 in0.0 mm
05:30 PM 46.0°F7.8°C 19.9°F-6.7°C 35% 11.0 mph WNW17.7 kmh WNW 15.0 mph24.1 kmh 30.23 in1023.7 mb 0.00 in0.0 mm 0.00 in0.0 mm 0.00 in0.0 mm
05:35 PM 46.0°F7.8°C 19.9°F-6.7°C 35% 2.0 mph WNW3.2 kmh WNW 15.0 mph24.1 kmh 30.23 in1023.7 mb 0.00 in0.0 mm 0.00 in0.0 mm 0.00 in0.0 mm
05:40 PM 45.9°F7.7°C 20.5°F-6.4°C 36% 7.0 mph W11.3 kmh W 11.0 mph17.7 kmh 30.23 in1023.7 mb 0.00 in0.0 mm 0.00 in0.0 mm 0.00 in0.0 mm
05:45 PM 45.8°F7.7°C 20.4°F-6.4°C 36% 8.0 mph WNW12.9 kmh WNW 13.0 mph20.9 kmh 30.23 in1023.7 mb 0.00 in0.0 mm 0.00 in0.0 mm 0.00 in0.0 mm
05:50 PM 45.7°F7.6°C 19.6°F-6.9°C 35% 7.0 mph WNW11.3 kmh WNW 16.0 mph25.7 kmh 30.23 in1023.7 mb 0.00 in0.0 mm 0.00 in0.0 mm 0.00 in0.0 mm
05:55 PM 45.7°F7.6°C 21.6°F-5.8°C 38% 4.0 mph WNW6.4 kmh WNW 8.0 mph12.9 kmh 30.23 in1023.7 mb 0.00 in0.0 mm 0.00 in0.0 mm 0.00 in0.0 mm
06:00 PM 45.6°F7.6°C 21.5°F-5.8°C 38% 4.0 mph WNW6.4 kmh WNW 11.0 mph17.7 kmh 30.23 in1023.7 mb 0.00 in0.0 mm 0.00 in0.0 mm 0.00 in0.0 mm
06:05 PM 45.5°F7.5°C 20.1°F-6.6°C 36% 8.0 mph WNW12.9 kmh WNW 14.0 mph22.5 kmh 30.24 in1024.0 mb 0.00 in0.0 mm 0.00 in0.0 mm 0.00 in0.0 mm
06:10 PM 45.5°F7.5°C 21.4°F-5.9°C 38% 8.0 mph WNW12.9 kmh WNW 11.0 mph17.7 kmh 30.24 in1024.0 mb 0.00 in0.0 mm 0.00 in0.0 mm 0.00 in0.0 mm
06:15 PM 45.3°F7.4°C 21.2°F-6.0°C 38% 5.0 mph WNW8.0 kmh WNW 12.0 mph19.3 kmh 30.24 in1024.0 mb 0.00 in0.0 mm 0.00 in0.0 mm 0.00 in0.0 mm
06:20 PM 45.1°F7.3°C 21.6°F-5.8°C 39% 5.0 mph WNW8.0 kmh WNW 12.0 mph19.3 kmh 30.24 in1024.0 mb 0.00 in0.0 mm 0.00 in0.0 mm 0.00 in0.0 mm
06:25 PM 44.9°F7.2°C 20.9°F-6.2°C 38% 9.0 mph WNW14.5 kmh WNW 12.0 mph19.3 kmh 30.24 in1024.0 mb 0.00 in0.0 mm 0.00 in0.0 mm 0.00 in0.0 mm
06:30 PM 44.8°F7.1°C 20.1°F-6.6°C 37% 9.0 mph WNW14.5 kmh WNW 13.0 mph20.9 kmh 30.24 in1024.0 mb 0.00 in0.0 mm 0.00 in0.0 mm 0.00 in0.0 mm
06:35 PM 44.7°F7.1°C 20.0°F-6.7°C 37% 7.0 mph WNW11.3 kmh WNW 14.0 mph22.5 kmh 30.25 in1024.4 mb 0.00 in0.0 mm 0.00 in0.0 mm 0.00 in0.0 mm
06:40 PM 44.7°F7.1°C 20.0°F-6.7°C 37% 8.0 mph WNW12.9 kmh WNW 11.0 mph17.7 kmh 30.25 in1024.4 mb 0.00 in0.0 mm 0.00 in0.0 mm 0.00 in0.0 mm
06:45 PM 44.6°F7.0°C 20.6°F-6.3°C 38% 10.0 mph WNW16.1 kmh WNW 15.0 mph24.1 kmh 30.25 in1024.4 mb 0.00 in0.0 mm 0.00 in0.0 mm 0.00 in0.0 mm
06:50 PM 44.5°F6.9°C 21.1°F-6.1°C 39% 5.0 mph NW8.0 kmh NW 15.0 mph24.1 kmh 30.26 in1024.7 mb 0.00 in0.0 mm 0.00 in0.0 mm 0.00 in0.0 mm
06:55 PM 44.4°F6.9°C 22.2°F-5.4°C 41% 7.0 mph WNW11.3 kmh WNW 7.0 mph11.3 kmh 30.26 in1024.7 mb 0.00 in0.0 mm 0.00 in0.0 mm 0.00 in0.0 mm
07:00 PM 44.4°F6.9°C 22.2°F-5.4°C 41% 5.0 mph NW8.0 kmh NW 12.0 mph19.3 kmh 30.26 in1024.7 mb 0.00 in0.0 mm 0.00 in0.0 mm 0.00 in0.0 mm
07:05 PM 44.4°F6.9°C 22.2°F-5.4°C 41% 5.0 mph WNW8.0 kmh WNW 12.0 mph19.3 kmh 30.26 in1024.7 mb 0.00 in0.0 mm 0.00 in0.0 mm 0.00 in0.0 mm
07:10 PM 44.3°F6.8°C 23.2°F-4.9°C 43% 4.0 mph WNW6.4 kmh WNW 7.0 mph11.3 kmh 30.26 in1024.7 mb 0.00 in0.0 mm 0.00 in0.0 mm 0.00 in0.0 mm
07:15 PM 44.2°F6.8°C 22.6°F-5.2°C 42% 7.0 mph WNW11.3 kmh WNW 8.0 mph12.9 kmh 30.26 in1024.7 mb 0.00 in0.0 mm 0.00 in0.0 mm 0.00 in0.0 mm
07:20 PM 44.2°F6.8°C 22.6°F-5.2°C 42% 3.0 mph WNW4.8 kmh WNW 10.0 mph16.1 kmh 30.26 in1024.7 mb 0.00 in0.0 mm 0.00 in0.0 mm 0.00 in0.0 mm
07:25 PM 44.1°F6.7°C 22.5°F-5.3°C 42% 1.0 mph WNW1.6 kmh WNW 5.0 mph8.0 kmh 30.26 in1024.7 mb 0.00 in0.0 mm 0.00 in0.0 mm 0.00 in0.0 mm
07:30 PM 44.0°F6.7°C 23.5°F-4.7°C 44% 4.0 mph WNW6.4 kmh WNW 7.0 mph11.3 kmh 30.27 in1025.1 mb 0.00 in0.0 mm 0.00 in0.0 mm 0.00 in0.0 mm
07:35 PM 44.0°F6.7°C 22.4°F-5.3°C 42% 5.0 mph NW8.0 kmh NW 9.0 mph14.5 kmh 30.27 in1025.1 mb 0.00 in0.0 mm 0.00 in0.0 mm 0.00 in0.0 mm
07:40 PM 44.0°F6.7°C 22.4°F-5.3°C 42% 3.0 mph NW4.8 kmh NW 5.0 mph8.0 kmh 30.27 in1025.1 mb 0.00 in0.0 mm 0.00 in0.0 mm 0.00 in0.0 mm
07:45 PM 44.0°F6.7°C 22.4°F-5.3°C 42% 3.0 mph NW4.8 kmh NW 5.0 mph8.0 kmh 30.27 in1025.1 mb 0.00 in0.0 mm 0.00 in0.0 mm 0.00 in0.0 mm
07:50 PM 43.9°F6.6°C 22.9°F-5.1°C 43% 2.0 mph NW3.2 kmh NW 5.0 mph8.0 kmh 30.27 in1025.1 mb 0.00 in0.0 mm 0.00 in0.0 mm 0.00 in0.0 mm
07:55 PM 43.8°F6.6°C 23.3°F-4.8°C 44% 4.0 mph NW6.4 kmh NW 4.0 mph6.4 kmh 30.28 in1025.4 mb 0.00 in0.0 mm 0.00 in0.0 mm 0.00 in0.0 mm
08:00 PM 43.8°F6.6°C 23.3°F-4.8°C 44% 3.0 mph NW4.8 kmh NW 8.0 mph12.9 kmh 30.28 in1025.4 mb 0.00 in0.0 mm 0.00 in0.0 mm 0.00 in0.0 mm
08:05 PM 43.7°F6.5°C 22.7°F-5.2°C 43% 3.0 mph NW4.8 kmh NW 8.0 mph12.9 kmh 30.28 in1025.4 mb 0.00 in0.0 mm 0.00 in0.0 mm 0.00 in0.0 mm
08:10 PM 43.7°F6.5°C 23.8°F-4.6°C 45% 1.0 mph NW1.6 kmh NW 3.0 mph4.8 kmh 30.28 in1025.4 mb 0.00 in0.0 mm 0.00 in0.0 mm 0.00 in0.0 mm
08:15 PM 43.6°F6.4°C 23.1°F-4.9°C 44% 1.0 mph NW1.6 kmh NW 3.0 mph4.8 kmh 30.28 in1025.4 mb 0.00 in0.0 mm 0.00 in0.0 mm 0.00 in0.0 mm
08:20 PM 43.5°F6.4°C 24.1°F-4.4°C 46% 2.0 mph NW3.2 kmh NW 4.0 mph6.4 kmh 30.28 in1025.4 mb 0.00 in0.0 mm 0.00 in0.0 mm 0.00 in0.0 mm
08:25 PM 43.5°F6.4°C 23.6°F-4.7°C 45% 5.0 mph NW8.0 kmh NW 5.0 mph8.0 kmh 30.28 in1025.4 mb 0.00 in0.0 mm 0.00 in0.0 mm 0.00 in0.0 mm
08:30 PM 43.4°F6.3°C 23.0°F-5.0°C 44% 3.0 mph NW4.8 kmh NW 7.0 mph11.3 kmh 30.28 in1025.4 mb 0.00 in0.0 mm 0.00 in0.0 mm 0.00 in0.0 mm
08:35 PM 43.4°F6.3°C 23.0°F-5.0°C 44% 2.0 mph NW3.2 kmh NW 7.0 mph11.3 kmh 30.29 in1025.7 mb 0.00 in0.0 mm 0.00 in0.0 mm 0.00 in0.0 mm
08:40 PM 43.4°F6.3°C 23.0°F-5.0°C 44% 3.0 mph NW4.8 kmh NW 3.0 mph4.8 kmh 30.28 in1025.4 mb 0.00 in0.0 mm 0.00 in0.0 mm 0.00 in0.0 mm
08:45 PM 43.3°F6.3°C 22.9°F-5.1°C 44% 1.0 mph NW1.6 kmh NW 5.0 mph8.0 kmh 30.29 in1025.7 mb 0.00 in0.0 mm 0.00 in0.0 mm 0.00 in0.0 mm
08:50 PM 43.3°F6.3°C 23.4°F-4.8°C 45% 1.0 mph NW1.6 kmh NW 5.0 mph8.0 kmh 30.29 in1025.7 mb 0.00 in0.0 mm 0.00 in0.0 mm 0.00 in0.0 mm
08:55 PM 43.1°F6.2°C 22.7°F-5.2°C 44% 3.0 mph NW4.8 kmh NW 5.0 mph8.0 kmh 30.28 in1025.4 mb 0.00 in0.0 mm 0.00 in0.0 mm 0.00 in0.0 mm
09:00 PM 43.2°F6.2°C 22.8°F-5.1°C 44% 2.0 mph NW3.2 kmh NW 7.0 mph11.3 kmh 30.29 in1025.7 mb 0.00 in0.0 mm 0.00 in0.0 mm 0.00 in0.0 mm
09:05 PM 43.2°F6.2°C 23.3°F-4.8°C 45% 3.0 mph NW4.8 kmh NW 7.0 mph11.3 kmh 30.29 in1025.7 mb 0.00 in0.0 mm 0.00 in0.0 mm 0.00 in0.0 mm
09:10 PM 43.2°F6.2°C 23.3°F-4.8°C 45% 3.0 mph NW4.8 kmh NW 4.0 mph6.4 kmh 30.29 in1025.7 mb 0.00 in0.0 mm 0.00 in0.0 mm 0.00 in0.0 mm
09:15 PM 43.2°F6.2°C 23.8°F-4.6°C 46% 1.0 mph NW1.6 kmh NW 4.0 mph6.4 kmh 30.29 in1025.7 mb 0.00 in0.0 mm 0.00 in0.0 mm 0.00 in0.0 mm
09:20 PM 43.1°F6.2°C 25.3°F-3.7°C 49% 1.0 mph NW1.6 kmh NW 4.0 mph6.4 kmh 30.30 in1026.1 mb 0.00 in0.0 mm 0.00 in0.0 mm 0.00 in0.0 mm
09:25 PM 43.1°F6.2°C 25.7°F-3.5°C 50% Calm Calm -- 30.30 in1026.1 mb 0.00 in0.0 mm 0.00 in0.0 mm 0.00 in0.0 mm
09:30 PM 42.8°F6.0°C 25.0°F-3.9°C 49% 1.0 mph NW1.6 kmh NW 3.0 mph4.8 kmh 30.29 in1025.7 mb 0.00 in0.0 mm 0.00 in0.0 mm 0.00 in0.0 mm
09:35 PM 42.7°F5.9°C 25.4°F-3.7°C 50% 1.0 mph NW1.6 kmh NW 3.0 mph4.8 kmh 30.30 in1026.1 mb 0.00 in0.0 mm 0.00 in0.0 mm 0.00 in0.0 mm
09:40 PM 42.6°F5.9°C 25.3°F-3.7°C 50% Calm Calm 1.0 mph1.6 kmh 30.30 in1026.1 mb 0.00 in0.0 mm 0.00 in0.0 mm 0.00 in0.0 mm
09:45 PM 42.4°F5.8°C 25.6°F-3.6°C 51% Calm Calm 1.0 mph1.6 kmh 30.29 in1025.7 mb 0.00 in0.0 mm 0.00 in0.0 mm 0.00 in0.0 mm
09:50 PM 42.2°F5.7°C 25.9°F-3.4°C 52% Calm Calm 1.0 mph1.6 kmh 30.30 in1026.1 mb 0.00 in0.0 mm 0.00 in0.0 mm 0.00 in0.0 mm
09:55 PM 42.1°F5.6°C 25.3°F-3.7°C 51% Calm Calm 1.0 mph1.6 kmh 30.30 in1026.1 mb 0.00 in0.0 mm 0.00 in0.0 mm 0.00 in0.0 mm
10:00 PM 41.8°F5.4°C 25.5°F-3.6°C 52% 1.0 mph NW1.6 kmh NW 2.0 mph3.2 kmh 30.30 in1026.1 mb 0.00 in0.0 mm 0.00 in0.0 mm 0.00 in0.0 mm
10:05 PM 41.6°F5.3°C 25.8°F-3.4°C 53% Calm Calm 2.0 mph3.2 kmh 30.30 in1026.1 mb 0.00 in0.0 mm 0.00 in0.0 mm 0.00 in0.0 mm
10:10 PM 41.6°F5.3°C 25.8°F-3.4°C 53% 3.0 mph NW4.8 kmh NW 5.0 mph8.0 kmh 30.30 in1026.1 mb 0.00 in0.0 mm 0.00 in0.0 mm 0.00 in0.0 mm
10:15 PM 41.7°F5.4°C 28.0°F-2.2°C 58% 1.0 mph NW1.6 kmh NW 5.0 mph8.0 kmh 30.30 in1026.1 mb 0.00 in0.0 mm 0.00 in0.0 mm 0.00 in0.0 mm
10:20 PM 41.6°F5.3°C 26.2°F-3.2°C 54% 2.0 mph NW3.2 kmh NW 5.0 mph8.0 kmh 30.30 in1026.1 mb 0.00 in0.0 mm 0.00 in0.0 mm 0.00 in0.0 mm
10:25 PM 41.7°F5.4°C 28.0°F-2.2°C 58% 4.0 mph NW6.4 kmh NW 7.0 mph11.3 kmh 30.30 in1026.1 mb 0.00 in0.0 mm 0.00 in0.0 mm 0.00 in0.0 mm
10:30 PM 42.3°F5.7°C 29.8°F-1.2°C 61% 3.0 mph NW4.8 kmh NW 7.0 mph11.3 kmh 30.30 in1026.1 mb 0.00 in0.0 mm 0.00 in0.0 mm 0.00 in0.0 mm
10:35 PM 42.5°F5.8°C 29.6°F-1.3°C 60% 1.0 mph NW1.6 kmh NW 7.0 mph11.3 kmh 30.30 in1026.1 mb 0.00 in0.0 mm 0.00 in0.0 mm 0.00 in0.0 mm
10:40 PM 42.4°F5.8°C 29.5°F-1.4°C 60% 1.0 mph NW1.6 kmh NW 2.0 mph3.2 kmh 30.30 in1026.1 mb 0.00 in0.0 mm 0.00 in0.0 mm 0.00 in0.0 mm
10:45 PM 42.4°F5.8°C 29.5°F-1.4°C 60% Calm Calm 2.0 mph3.2 kmh 30.30 in1026.1 mb 0.00 in0.0 mm 0.00 in0.0 mm 0.00 in0.0 mm
10:50 PM 42.2°F5.7°C 29.3°F-1.5°C 60% Calm Calm 2.0 mph3.2 kmh 30.31 in1026.4 mb 0.00 in0.0 mm 0.00 in0.0 mm 0.00 in0.0 mm
10:55 PM 42.0°F5.6°C 29.5°F-1.4°C 61% Calm Calm -- 30.31 in1026.4 mb 0.00 in0.0 mm 0.00 in0.0 mm 0.00 in0.0 mm
11:00 PM 41.8°F5.4°C 30.9°F-0.6°C 65% 1.0 mph NW1.6 kmh NW 1.0 mph1.6 kmh 30.31 in1026.4 mb 0.00 in0.0 mm 0.00 in0.0 mm 0.00 in0.0 mm
11:05 PM 41.5°F5.3°C 31.4°F-0.3°C 67% 1.0 mph NW1.6 kmh NW 2.0 mph3.2 kmh 30.31 in1026.4 mb 0.00 in0.0 mm 0.00 in0.0 mm 0.00 in0.0 mm
11:10 PM 41.3°F5.2°C 32.3°F0.2°C 70% 1.0 mph NW1.6 kmh NW 2.0 mph3.2 kmh 30.31 in1026.4 mb 0.00 in0.0 mm 0.00 in0.0 mm 0.00 in0.0 mm
11:15 PM 40.9°F4.9°C 32.6°F0.3°C 72% 1.0 mph NW1.6 kmh NW 2.0 mph3.2 kmh 30.31 in1026.4 mb 0.00 in0.0 mm 0.00 in0.0 mm 0.00 in0.0 mm
11:20 PM 40.7°F4.8°C 32.7°F0.4°C 73% Calm Calm 2.0 mph3.2 kmh 30.31 in1026.4 mb 0.00 in0.0 mm 0.00 in0.0 mm 0.00 in0.0 mm
11:25 PM 40.2°F4.6°C 32.6°F0.3°C 74% 2.0 mph NW3.2 kmh NW 2.0 mph3.2 kmh 30.31 in1026.4 mb 0.00 in0.0 mm 0.00 in0.0 mm 0.00 in0.0 mm
11:30 PM 39.7°F4.3°C 31.8°F-0.1°C 73% 1.0 mph NW1.6 kmh NW 3.0 mph4.8 kmh 30.31 in1026.4 mb 0.00 in0.0 mm 0.00 in0.0 mm 0.00 in0.0 mm
11:35 PM 39.4°F4.1°C 31.8°F-0.1°C 74% Calm Calm 3.0 mph4.8 kmh 30.31 in1026.4 mb 0.00 in0.0 mm 0.00 in0.0 mm 0.00 in0.0 mm
11:40 PM 39.2°F4.0°C 32.0°F0.0°C 75% 1.0 mph NW1.6 kmh NW 1.0 mph1.6 kmh 30.31 in1026.4 mb 0.00 in0.0 mm 0.00 in0.0 mm 0.00 in0.0 mm
11:45 PM 39.0°F3.9°C 32.1°F0.1°C 76% 3.0 mph NW4.8 kmh NW 4.0 mph6.4 kmh 30.31 in1026.4 mb 0.00 in0.0 mm 0.00 in0.0 mm 0.00 in0.0 mm
11:50 PM 39.0°F3.9°C 32.4°F0.2°C 77% Calm Calm 4.0 mph6.4 kmh 30.31 in1026.4 mb 0.00 in0.0 mm 0.00 in0.0 mm 0.00 in0.0 mm
11:55 PM 38.9°F3.8°C 32.3°F0.2°C 77% 1.0 mph NW1.6 kmh NW 1.0 mph1.6 kmh 30.32 in1026.8 mb 0.00 in0.0 mm 0.00 in0.0 mm 0.00 in0.0 mm